sensor_id;sensor_type;location;lat;lon;timestamp;P1;durP1;ratioP1;P2;durP2;ratioP2
26040;SDS011;13816;53.628;9.950;2023-05-31T00:00:23;6.67;;;4.17;;
26040;SDS011;13816;53.628;9.950;2023-05-31T00:02:57;8.33;;;5.63;;
26040;SDS011;13816;53.628;9.950;2023-05-31T00:05:34;6.97;;;4.10;;
26040;SDS011;13816;53.628;9.950;2023-05-31T00:08:08;6.73;;;4.10;;
26040;SDS011;13816;53.628;9.950;2023-05-31T00:10:36;9.80;;;4.70;;
26040;SDS011;13816;53.628;9.950;2023-05-31T00:13:03;4.70;;;3.70;;
26040;SDS011;13816;53.628;9.950;2023-05-31T00:15:40;7.07;;;4.13;;
26040;SDS011;13816;53.628;9.950;2023-05-31T00:18:11;6.80;;;4.97;;
26040;SDS011;13816;53.628;9.950;2023-05-31T00:20:39;6.73;;;4.37;;
26040;SDS011;13816;53.628;9.950;2023-05-31T00:23:19;6.53;;;4.00;;
26040;SDS011;13816;53.628;9.950;2023-05-31T00:25:56;7.13;;;3.93;;
26040;SDS011;13816;53.628;9.950;2023-05-31T00:28:26;7.93;;;4.57;;
26040;SDS011;13816;53.628;9.950;2023-05-31T00:31:01;9.23;;;4.37;;
26040;SDS011;13816;53.628;9.950;2023-05-31T00:33:38;6.30;;;4.10;;
26040;SDS011;13816;53.628;9.950;2023-05-31T00:36:15;6.00;;;4.17;;
26040;SDS011;13816;53.628;9.950;2023-05-31T00:38:57;8.17;;;4.47;;
26040;SDS011;13816;53.628;9.950;2023-05-31T00:41:50;5.97;;;3.67;;
26040;SDS011;13816;53.628;9.950;2023-05-31T00:44:19;10.70;;;4.60;;
26040;SDS011;13816;53.628;9.950;2023-05-31T00:46:50;10.77;;;4.93;;
26040;SDS011;13816;53.628;9.950;2023-05-31T00:49:18;12.17;;;3.87;;
26040;SDS011;13816;53.628;9.950;2023-05-31T00:51:46;6.80;;;3.83;;
26040;SDS011;13816;53.628;9.950;2023-05-31T00:54:19;7.40;;;3.73;;
26040;SDS011;13816;53.628;9.950;2023-05-31T00:56:53;9.40;;;4.83;;
26040;SDS011;13816;53.628;9.950;2023-05-31T00:59:30;8.27;;;4.57;;
26040;SDS011;13816;53.628;9.950;2023-05-31T01:02:32;7.10;;;4.30;;
26040;SDS011;13816;53.628;9.950;2023-05-31T01:05:01;9.77;;;4.00;;
26040;SDS011;13816;53.628;9.950;2023-05-31T01:07:42;10.30;;;4.20;;
26040;SDS011;13816;53.628;9.950;2023-05-31T01:10:12;8.93;;;4.17;;
26040;SDS011;13816;53.628;9.950;2023-05-31T01:15:43;11.87;;;4.67;;
26040;SDS011;13816;53.628;9.950;2023-05-31T01:18:18;6.27;;;4.67;;
26040;SDS011;13816;53.628;9.950;2023-05-31T01:20:54;6.60;;;4.20;;
26040;SDS011;13816;53.628;9.950;2023-05-31T01:23:34;8.90;;;4.80;;
26040;SDS011;13816;53.628;9.950;2023-05-31T01:26:20;9.03;;;5.03;;
26040;SDS011;13816;53.628;9.950;2023-05-31T01:28:53;5.57;;;4.60;;
26040;SDS011;13816;53.628;9.950;2023-05-31T01:31:27;9.30;;;4.60;;
26040;SDS011;13816;53.628;9.950;2023-05-31T01:33:57;7.80;;;5.00;;
26040;SDS011;13816;53.628;9.950;2023-05-31T01:36:32;7.10;;;4.60;;
26040;SDS011;13816;53.628;9.950;2023-05-31T01:39:00;9.90;;;4.77;;
26040;SDS011;13816;53.628;9.950;2023-05-31T01:41:31;7.83;;;4.77;;
26040;SDS011;13816;53.628;9.950;2023-05-31T01:44:01;11.63;;;6.93;;
26040;SDS011;13816;53.628;9.950;2023-05-31T01:46:32;6.83;;;4.90;;
26040;SDS011;13816;53.628;9.950;2023-05-31T01:49:03;8.17;;;5.10;;
26040;SDS011;13816;53.628;9.950;2023-05-31T01:51:32;7.03;;;5.00;;
26040;SDS011;13816;53.628;9.950;2023-05-31T01:54:03;11.13;;;4.47;;
26040;SDS011;13816;53.628;9.950;2023-05-31T01:56:35;11.27;;;5.70;;
26040;SDS011;13816;53.628;9.950;2023-05-31T01:59:07;6.63;;;4.10;;
26040;SDS011;13816;53.628;9.950;2023-05-31T02:01:38;9.27;;;4.70;;
26040;SDS011;13816;53.628;9.950;2023-05-31T02:04:16;11.20;;;4.73;;
26040;SDS011;13816;53.628;9.950;2023-05-31T02:06:51;10.37;;;5.33;;
26040;SDS011;13816;53.628;9.950;2023-05-31T02:09:22;6.27;;;4.60;;
26040;SDS011;13816;53.628;9.950;2023-05-31T02:11:52;8.50;;;5.07;;
26040;SDS011;13816;53.628;9.950;2023-05-31T02:14:19;7.50;;;5.60;;
26040;SDS011;13816;53.628;9.950;2023-05-31T02:16:47;8.97;;;5.10;;
26040;SDS011;13816;53.628;9.950;2023-05-31T02:19:21;13.13;;;5.93;;
26040;SDS011;13816;53.628;9.950;2023-05-31T02:21:51;10.57;;;6.10;;
26040;SDS011;13816;53.628;9.950;2023-05-31T02:24:23;5.97;;;5.17;;
26040;SDS011;13816;53.628;9.950;2023-05-31T02:26:54;7.00;;;5.13;;
26040;SDS011;13816;53.628;9.950;2023-05-31T02:29:24;9.10;;;4.77;;
26040;SDS011;13816;53.628;9.950;2023-05-31T02:31:54;7.10;;;4.97;;
26040;SDS011;13816;53.628;9.950;2023-05-31T02:34:22;8.70;;;4.37;;
26040;SDS011;13816;53.628;9.950;2023-05-31T02:36:53;8.83;;;5.43;;
26040;SDS011;13816;53.628;9.950;2023-05-31T02:39:24;6.60;;;4.63;;
26040;SDS011;13816;53.628;9.950;2023-05-31T02:41:54;5.60;;;4.63;;
26040;SDS011;13816;53.628;9.950;2023-05-31T02:44:24;10.47;;;4.87;;
26040;SDS011;13816;53.628;9.950;2023-05-31T02:46:52;7.73;;;5.33;;
26040;SDS011;13816;53.628;9.950;2023-05-31T02:49:22;10.03;;;4.80;;
26040;SDS011;13816;53.628;9.950;2023-05-31T02:51:53;12.83;;;5.90;;
26040;SDS011;13816;53.628;9.950;2023-05-31T02:54:42;7.97;;;4.57;;
26040;SDS011;13816;53.628;9.950;2023-05-31T02:57:15;9.00;;;5.67;;
26040;SDS011;13816;53.628;9.950;2023-05-31T02:59:45;12.10;;;5.20;;
26040;SDS011;13816;53.628;9.950;2023-05-31T03:02:19;5.43;;;4.73;;
26040;SDS011;13816;53.628;9.950;2023-05-31T03:05:07;6.07;;;4.43;;
26040;SDS011;13816;53.628;9.950;2023-05-31T03:07:37;7.47;;;5.00;;
26040;SDS011;13816;53.628;9.950;2023-05-31T03:10:08;8.60;;;4.90;;
26040;SDS011;13816;53.628;9.950;2023-05-31T03:12:39;5.67;;;4.63;;
26040;SDS011;13816;53.628;9.950;2023-05-31T03:15:09;5.90;;;4.57;;
26040;SDS011;13816;53.628;9.950;2023-05-31T03:17:37;10.00;;;4.83;;
26040;SDS011;13816;53.628;9.950;2023-05-31T03:20:06;6.20;;;4.57;;
26040;SDS011;13816;53.628;9.950;2023-05-31T03:22:38;5.27;;;4.17;;
26040;SDS011;13816;53.628;9.950;2023-05-31T03:25:10;5.90;;;4.80;;
26040;SDS011;13816;53.628;9.950;2023-05-31T03:27:41;7.63;;;5.07;;
26040;SDS011;13816;53.628;9.950;2023-05-31T03:30:09;6.43;;;4.63;;
26040;SDS011;13816;53.628;9.950;2023-05-31T03:32:47;6.30;;;4.50;;
26040;SDS011;13816;53.628;9.950;2023-05-31T03:35:18;5.10;;;4.13;;
26040;SDS011;13816;53.628;9.950;2023-05-31T03:37:48;7.93;;;4.97;;
26040;SDS011;13816;53.628;9.950;2023-05-31T03:40:20;9.90;;;4.50;;
26040;SDS011;13816;53.628;9.950;2023-05-31T03:42:53;7.60;;;5.10;;
26040;SDS011;13816;53.628;9.950;2023-05-31T03:45:24;10.57;;;5.40;;
26040;SDS011;13816;53.628;9.950;2023-05-31T03:47:53;7.53;;;5.20;;
26040;SDS011;13816;53.628;9.950;2023-05-31T03:50:20;8.03;;;5.83;;
26040;SDS011;13816;53.628;9.950;2023-05-31T03:52:48;12.67;;;5.77;;
26040;SDS011;13816;53.628;9.950;2023-05-31T03:55:16;7.43;;;5.00;;
26040;SDS011;13816;53.628;9.950;2023-05-31T03:57:49;7.03;;;4.80;;
26040;SDS011;13816;53.628;9.950;2023-05-31T04:00:18;7.30;;;4.70;;
26040;SDS011;13816;53.628;9.950;2023-05-31T04:02:50;6.63;;;4.83;;
26040;SDS011;13816;53.628;9.950;2023-05-31T04:05:31;7.40;;;5.10;;
26040;SDS011;13816;53.628;9.950;2023-05-31T04:08:02;8.00;;;5.00;;
26040;SDS011;13816;53.628;9.950;2023-05-31T04:10:31;6.03;;;5.37;;
26040;SDS011;13816;53.628;9.950;2023-05-31T04:12:59;9.60;;;4.90;;
26040;SDS011;13816;53.628;9.950;2023-05-31T04:15:27;6.93;;;5.37;;
26040;SDS011;13816;53.628;9.950;2023-05-31T04:17:59;9.10;;;5.37;;
26040;SDS011;13816;53.628;9.950;2023-05-31T04:20:28;5.73;;;5.10;;
26040;SDS011;13816;53.628;9.950;2023-05-31T04:22:55;9.77;;;6.07;;
26040;SDS011;13816;53.628;9.950;2023-05-31T04:25:24;7.67;;;5.03;;
26040;SDS011;13816;53.628;9.950;2023-05-31T04:28:00;10.03;;;6.00;;
26040;SDS011;13816;53.628;9.950;2023-05-31T04:30:40;11.80;;;6.00;;
26040;SDS011;13816;53.628;9.950;2023-05-31T04:33:19;11.87;;;5.50;;
26040;SDS011;13816;53.628;9.950;2023-05-31T04:35:51;7.27;;;5.60;;
26040;SDS011;13816;53.628;9.950;2023-05-31T04:38:22;7.67;;;5.50;;
26040;SDS011;13816;53.628;9.950;2023-05-31T04:41:00;8.37;;;5.67;;
26040;SDS011;13816;53.628;9.950;2023-05-31T04:43:31;9.90;;;6.90;;
26040;SDS011;13816;53.628;9.950;2023-05-31T04:46:04;8.63;;;5.27;;
26040;SDS011;13816;53.628;9.950;2023-05-31T04:48:38;12.13;;;7.00;;
26040;SDS011;13816;53.628;9.950;2023-05-31T04:51:09;8.60;;;5.83;;
26040;SDS011;13816;53.628;9.950;2023-05-31T04:53:40;12.97;;;7.33;;
26040;SDS011;13816;53.628;9.950;2023-05-31T04:56:11;14.23;;;6.77;;
26040;SDS011;13816;53.628;9.950;2023-05-31T04:59:08;18.07;;;8.10;;
26040;SDS011;13816;53.628;9.950;2023-05-31T05:01:54;16.67;;;8.17;;
26040;SDS011;13816;53.628;9.950;2023-05-31T05:04:26;14.77;;;7.13;;
26040;SDS011;13816;53.628;9.950;2023-05-31T05:07:04;10.27;;;7.63;;
26040;SDS011;13816;53.628;9.950;2023-05-31T05:09:33;11.93;;;7.70;;
26040;SDS011;13816;53.628;9.950;2023-05-31T05:12:01;11.87;;;7.17;;
26040;SDS011;13816;53.628;9.950;2023-05-31T05:14:45;10.40;;;7.20;;
26040;SDS011;13816;53.628;9.950;2023-05-31T05:17:14;12.63;;;7.77;;
26040;SDS011;13816;53.628;9.950;2023-05-31T05:19:45;12.47;;;7.20;;
26040;SDS011;13816;53.628;9.950;2023-05-31T05:22:13;12.10;;;7.97;;
26040;SDS011;13816;53.628;9.950;2023-05-31T05:24:43;12.10;;;7.30;;
26040;SDS011;13816;53.628;9.950;2023-05-31T05:27:11;14.47;;;7.50;;
26040;SDS011;13816;53.628;9.950;2023-05-31T05:29:45;10.97;;;7.00;;
26040;SDS011;13816;53.628;9.950;2023-05-31T05:32:27;12.93;;;7.37;;
26040;SDS011;13816;53.628;9.950;2023-05-31T05:35:00;15.20;;;8.43;;
26040;SDS011;13816;53.628;9.950;2023-05-31T05:37:45;21.13;;;9.13;;
26040;SDS011;13816;53.628;9.950;2023-05-31T05:40:18;12.10;;;6.53;;
26040;SDS011;13816;53.628;9.950;2023-05-31T05:42:57;13.17;;;7.40;;
26040;SDS011;13816;53.628;9.950;2023-05-31T05:45:28;14.27;;;8.33;;
26040;SDS011;13816;53.628;9.950;2023-05-31T05:48:00;12.63;;;7.90;;
26040;SDS011;13816;53.628;9.950;2023-05-31T05:50:28;11.50;;;7.80;;
26040;SDS011;13816;53.628;9.950;2023-05-31T05:52:56;13.20;;;7.30;;
26040;SDS011;13816;53.628;9.950;2023-05-31T05:55:28;20.73;;;8.07;;
26040;SDS011;13816;53.628;9.950;2023-05-31T05:57:59;16.73;;;8.00;;
26040;SDS011;13816;53.628;9.950;2023-05-31T06:00:45;14.60;;;7.30;;
26040;SDS011;13816;53.628;9.950;2023-05-31T06:03:18;16.83;;;8.03;;
26040;SDS011;13816;53.628;9.950;2023-05-31T06:05:51;11.50;;;7.60;;
26040;SDS011;13816;53.628;9.950;2023-05-31T06:08:26;17.33;;;7.80;;
26040;SDS011;13816;53.628;9.950;2023-05-31T06:10:54;15.43;;;7.10;;
26040;SDS011;13816;53.628;9.950;2023-05-31T06:13:24;10.10;;;6.10;;
26040;SDS011;13816;53.628;9.950;2023-05-31T06:15:55;9.43;;;5.80;;
26040;SDS011;13816;53.628;9.950;2023-05-31T06:18:28;15.17;;;6.50;;
26040;SDS011;13816;53.628;9.950;2023-05-31T06:20:56;13.10;;;6.50;;
26040;SDS011;13816;53.628;9.950;2023-05-31T06:23:26;13.20;;;6.73;;
26040;SDS011;13816;53.628;9.950;2023-05-31T06:25:56;16.73;;;5.77;;
26040;SDS011;13816;53.628;9.950;2023-05-31T06:28:30;8.57;;;5.30;;
26040;SDS011;13816;53.628;9.950;2023-05-31T06:31:26;10.13;;;4.93;;
26040;SDS011;13816;53.628;9.950;2023-05-31T06:34:01;8.00;;;4.87;;
26040;SDS011;13816;53.628;9.950;2023-05-31T06:36:44;6.13;;;4.37;;
26040;SDS011;13816;53.628;9.950;2023-05-31T06:39:12;9.40;;;5.87;;
26040;SDS011;13816;53.628;9.950;2023-05-31T06:41:43;11.37;;;4.80;;
26040;SDS011;13816;53.628;9.950;2023-05-31T06:44:29;9.33;;;4.97;;
26040;SDS011;13816;53.628;9.950;2023-05-31T06:47:07;12.60;;;4.70;;
26040;SDS011;13816;53.628;9.950;2023-05-31T06:49:57;6.00;;;3.97;;
26040;SDS011;13816;53.628;9.950;2023-05-31T06:52:44;5.27;;;3.60;;
26040;SDS011;13816;53.628;9.950;2023-05-31T06:55:36;13.63;;;4.37;;
26040;SDS011;13816;53.628;9.950;2023-05-31T06:58:09;3.83;;;3.20;;
26040;SDS011;13816;53.628;9.950;2023-05-31T07:00:39;8.67;;;3.20;;
26040;SDS011;13816;53.628;9.950;2023-05-31T07:03:11;7.57;;;3.93;;
26040;SDS011;13816;53.628;9.950;2023-05-31T07:05:39;5.93;;;3.20;;
26040;SDS011;13816;53.628;9.950;2023-05-31T07:08:10;9.33;;;3.10;;
26040;SDS011;13816;53.628;9.950;2023-05-31T07:11:00;7.20;;;3.20;;
26040;SDS011;13816;53.628;9.950;2023-05-31T07:13:28;5.23;;;3.30;;
26040;SDS011;13816;53.628;9.950;2023-05-31T07:15:56;6.97;;;3.00;;
26040;SDS011;13816;53.628;9.950;2023-05-31T07:18:26;3.97;;;2.80;;
26040;SDS011;13816;53.628;9.950;2023-05-31T07:20:56;6.20;;;3.40;;
26040;SDS011;13816;53.628;9.950;2023-05-31T07:23:25;10.60;;;3.47;;
26040;SDS011;13816;53.628;9.950;2023-05-31T07:25:53;8.60;;;3.53;;
26040;SDS011;13816;53.628;9.950;2023-05-31T07:28:20;12.73;;;3.63;;
26040;SDS011;13816;53.628;9.950;2023-05-31T07:30:48;6.90;;;3.17;;
26040;SDS011;13816;53.628;9.950;2023-05-31T07:33:15;6.50;;;2.63;;
26040;SDS011;13816;53.628;9.950;2023-05-31T07:35:43;16.33;;;3.00;;
26040;SDS011;13816;53.628;9.950;2023-05-31T07:38:13;4.20;;;2.50;;
26040;SDS011;13816;53.628;9.950;2023-05-31T07:40:41;7.07;;;3.30;;
26040;SDS011;13816;53.628;9.950;2023-05-31T07:43:08;12.30;;;2.80;;
26040;SDS011;13816;53.628;9.950;2023-05-31T07:45:38;10.67;;;3.30;;
26040;SDS011;13816;53.628;9.950;2023-05-31T07:48:06;3.03;;;2.47;;
26040;SDS011;13816;53.628;9.950;2023-05-31T07:50:34;6.20;;;2.93;;
26040;SDS011;13816;53.628;9.950;2023-05-31T07:53:01;9.13;;;3.13;;
26040;SDS011;13816;53.628;9.950;2023-05-31T07:55:32;5.70;;;2.57;;
26040;SDS011;13816;53.628;9.950;2023-05-31T07:57:59;10.90;;;2.80;;
26040;SDS011;13816;53.628;9.950;2023-05-31T08:00:26;7.60;;;2.63;;
26040;SDS011;13816;53.628;9.950;2023-05-31T08:02:56;4.23;;;2.70;;
26040;SDS011;13816;53.628;9.950;2023-05-31T08:05:24;7.70;;;2.50;;
26040;SDS011;13816;53.628;9.950;2023-05-31T08:07:51;4.67;;;2.57;;
26040;SDS011;13816;53.628;9.950;2023-05-31T08:10:19;6.80;;;2.47;;
26040;SDS011;13816;53.628;9.950;2023-05-31T08:12:46;6.93;;;2.40;;
26040;SDS011;13816;53.628;9.950;2023-05-31T08:15:14;7.40;;;2.83;;
26040;SDS011;13816;53.628;9.950;2023-05-31T08:17:41;10.80;;;2.80;;
26040;SDS011;13816;53.628;9.950;2023-05-31T08:20:10;8.97;;;2.50;;
26040;SDS011;13816;53.628;9.950;2023-05-31T08:22:43;4.53;;;2.80;;
26040;SDS011;13816;53.628;9.950;2023-05-31T08:25:11;3.97;;;2.50;;
26040;SDS011;13816;53.628;9.950;2023-05-31T08:27:39;8.93;;;2.80;;
26040;SDS011;13816;53.628;9.950;2023-05-31T08:30:08;8.33;;;2.63;;
26040;SDS011;13816;53.628;9.950;2023-05-31T08:32:36;8.23;;;2.53;;
26040;SDS011;13816;53.628;9.950;2023-05-31T08:35:04;7.53;;;3.00;;
26040;SDS011;13816;53.628;9.950;2023-05-31T08:37:36;12.00;;;3.13;;
26040;SDS011;13816;53.628;9.950;2023-05-31T08:40:07;9.63;;;3.23;;
26040;SDS011;13816;53.628;9.950;2023-05-31T08:42:55;6.73;;;2.87;;
26040;SDS011;13816;53.628;9.950;2023-05-31T08:45:29;7.83;;;3.40;;
26040;SDS011;13816;53.628;9.950;2023-05-31T08:48:02;5.10;;;2.73;;
26040;SDS011;13816;53.628;9.950;2023-05-31T08:50:33;5.37;;;2.27;;
26040;SDS011;13816;53.628;9.950;2023-05-31T08:53:01;8.07;;;2.63;;
26040;SDS011;13816;53.628;9.950;2023-05-31T08:55:30;8.03;;;2.47;;
26040;SDS011;13816;53.628;9.950;2023-05-31T08:57:57;8.63;;;3.33;;
26040;SDS011;13816;53.628;9.950;2023-05-31T09:00:29;6.27;;;2.97;;
26040;SDS011;13816;53.628;9.950;2023-05-31T09:03:10;8.00;;;2.80;;
26040;SDS011;13816;53.628;9.950;2023-05-31T09:05:45;7.80;;;3.00;;
26040;SDS011;13816;53.628;9.950;2023-05-31T09:08:13;10.47;;;2.93;;
26040;SDS011;13816;53.628;9.950;2023-05-31T09:10:42;12.83;;;3.10;;
26040;SDS011;13816;53.628;9.950;2023-05-31T09:13:10;5.70;;;3.00;;
26040;SDS011;13816;53.628;9.950;2023-05-31T09:15:39;5.47;;;2.87;;
26040;SDS011;13816;53.628;9.950;2023-05-31T09:18:13;12.43;;;2.63;;
26040;SDS011;13816;53.628;9.950;2023-05-31T09:20:43;8.23;;;3.10;;
26040;SDS011;13816;53.628;9.950;2023-05-31T09:23:22;7.47;;;2.77;;
26040;SDS011;13816;53.628;9.950;2023-05-31T09:26:07;9.30;;;3.37;;
26040;SDS011;13816;53.628;9.950;2023-05-31T09:28:37;6.40;;;2.30;;
26040;SDS011;13816;53.628;9.950;2023-05-31T09:31:07;9.17;;;2.40;;
26040;SDS011;13816;53.628;9.950;2023-05-31T09:33:49;4.27;;;2.33;;
26040;SDS011;13816;53.628;9.950;2023-05-31T09:36:27;4.43;;;2.50;;
26040;SDS011;13816;53.628;9.950;2023-05-31T09:39:06;6.97;;;2.30;;
26040;SDS011;13816;53.628;9.950;2023-05-31T09:41:39;11.20;;;2.43;;
26040;SDS011;13816;53.628;9.950;2023-05-31T09:44:13;7.77;;;2.83;;
26040;SDS011;13816;53.628;9.950;2023-05-31T09:46:52;7.50;;;2.90;;
26040;SDS011;13816;53.628;9.950;2023-05-31T09:49:24;9.87;;;3.00;;
26040;SDS011;13816;53.628;9.950;2023-05-31T09:51:54;7.43;;;3.40;;
26040;SDS011;13816;53.628;9.950;2023-05-31T09:54:29;5.20;;;2.47;;
26040;SDS011;13816;53.628;9.950;2023-05-31T09:57:06;5.43;;;2.70;;
26040;SDS011;13816;53.628;9.950;2023-05-31T09:59:42;8.33;;;3.30;;
26040;SDS011;13816;53.628;9.950;2023-05-31T10:02:13;3.90;;;2.63;;
26040;SDS011;13816;53.628;9.950;2023-05-31T10:04:49;6.13;;;2.30;;
26040;SDS011;13816;53.628;9.950;2023-05-31T10:07:20;6.17;;;2.30;;
26040;SDS011;13816;53.628;9.950;2023-05-31T10:09:48;9.30;;;2.43;;
26040;SDS011;13816;53.628;9.950;2023-05-31T10:12:16;6.17;;;1.90;;
26040;SDS011;13816;53.628;9.950;2023-05-31T10:14:49;9.57;;;3.30;;
26040;SDS011;13816;53.628;9.950;2023-05-31T10:17:23;7.77;;;2.67;;
26040;SDS011;13816;53.628;9.950;2023-05-31T10:19:54;9.07;;;2.57;;
26040;SDS011;13816;53.628;9.950;2023-05-31T10:22:24;11.83;;;3.23;;
26040;SDS011;13816;53.628;9.950;2023-05-31T10:25:03;7.33;;;2.57;;
26040;SDS011;13816;53.628;9.950;2023-05-31T10:27:36;7.93;;;2.80;;
26040;SDS011;13816;53.628;9.950;2023-05-31T10:30:12;10.70;;;2.70;;
26040;SDS011;13816;53.628;9.950;2023-05-31T10:32:43;4.90;;;2.17;;
26040;SDS011;13816;53.628;9.950;2023-05-31T10:35:15;8.17;;;2.87;;
26040;SDS011;13816;53.628;9.950;2023-05-31T10:37:43;4.30;;;2.60;;
26040;SDS011;13816;53.628;9.950;2023-05-31T10:46:09;3.67;;;2.10;;
26040;SDS011;13816;53.628;9.950;2023-05-31T10:48:45;4.77;;;1.90;;
26040;SDS011;13816;53.628;9.950;2023-05-31T10:51:15;8.57;;;2.23;;
26040;SDS011;13816;53.628;9.950;2023-05-31T10:53:44;7.10;;;2.37;;
26040;SDS011;13816;53.628;9.950;2023-05-31T10:56:16;8.07;;;2.80;;
26040;SDS011;13816;53.628;9.950;2023-05-31T10:58:49;5.23;;;2.37;;
26040;SDS011;13816;53.628;9.950;2023-05-31T11:01:23;4.23;;;2.10;;
26040;SDS011;13816;53.628;9.950;2023-05-31T11:04:19;8.90;;;2.33;;
26040;SDS011;13816;53.628;9.950;2023-05-31T11:06:47;5.20;;;2.50;;
26040;SDS011;13816;53.628;9.950;2023-05-31T11:09:19;8.43;;;2.20;;
26040;SDS011;13816;53.628;9.950;2023-05-31T11:11:50;6.87;;;2.70;;
26040;SDS011;13816;53.628;9.950;2023-05-31T11:19:27;8.00;;;2.80;;
26040;SDS011;13816;53.628;9.950;2023-05-31T11:21:55;8.13;;;2.40;;
26040;SDS011;13816;53.628;9.950;2023-05-31T11:24:27;7.00;;;2.30;;
26040;SDS011;13816;53.628;9.950;2023-05-31T11:26:56;5.50;;;2.70;;
26040;SDS011;13816;53.628;9.950;2023-05-31T11:29:24;11.13;;;3.40;;
26040;SDS011;13816;53.628;9.950;2023-05-31T11:34:22;6.87;;;2.67;;
26040;SDS011;13816;53.628;9.950;2023-05-31T11:36:53;4.13;;;2.30;;
26040;SDS011;13816;53.628;9.950;2023-05-31T11:39:20;6.00;;;2.60;;
26040;SDS011;13816;53.628;9.950;2023-05-31T11:41:48;7.10;;;3.30;;
26040;SDS011;13816;53.628;9.950;2023-05-31T11:44:29;8.13;;;3.53;;
26040;SDS011;13816;53.628;9.950;2023-05-31T11:47:00;4.00;;;2.67;;
26040;SDS011;13816;53.628;9.950;2023-05-31T11:49:29;8.83;;;3.13;;
26040;SDS011;13816;53.628;9.950;2023-05-31T11:51:58;6.80;;;3.23;;
26040;SDS011;13816;53.628;9.950;2023-05-31T11:54:29;10.73;;;3.20;;
26040;SDS011;13816;53.628;9.950;2023-05-31T11:57:04;6.63;;;2.67;;
26040;SDS011;13816;53.628;9.950;2023-05-31T11:59:46;9.53;;;3.03;;
26040;SDS011;13816;53.628;9.950;2023-05-31T12:02:16;9.30;;;2.77;;
26040;SDS011;13816;53.628;9.950;2023-05-31T12:04:45;4.87;;;2.17;;
26040;SDS011;13816;53.628;9.950;2023-05-31T12:07:15;6.97;;;2.90;;
26040;SDS011;13816;53.628;9.950;2023-05-31T12:09:49;7.50;;;2.63;;
26040;SDS011;13816;53.628;9.950;2023-05-31T12:12:22;5.70;;;2.70;;
26040;SDS011;13816;53.628;9.950;2023-05-31T12:14:56;9.33;;;2.57;;
26040;SDS011;13816;53.628;9.950;2023-05-31T12:17:25;7.03;;;2.10;;
26040;SDS011;13816;53.628;9.950;2023-05-31T12:19:53;4.13;;;2.00;;
26040;SDS011;13816;53.628;9.950;2023-05-31T12:22:21;5.77;;;2.40;;
26040;SDS011;13816;53.628;9.950;2023-05-31T12:24:53;6.07;;;1.80;;
26040;SDS011;13816;53.628;9.950;2023-05-31T12:27:22;5.33;;;2.13;;
26040;SDS011;13816;53.628;9.950;2023-05-31T12:30:02;6.43;;;2.30;;
26040;SDS011;13816;53.628;9.950;2023-05-31T12:32:31;8.40;;;2.60;;
26040;SDS011;13816;53.628;9.950;2023-05-31T12:35:03;6.10;;;2.17;;
26040;SDS011;13816;53.628;9.950;2023-05-31T12:37:37;9.63;;;1.87;;
26040;SDS011;13816;53.628;9.950;2023-05-31T12:40:08;6.63;;;2.23;;
26040;SDS011;13816;53.628;9.950;2023-05-31T12:42:36;7.50;;;2.20;;
26040;SDS011;13816;53.628;9.950;2023-05-31T12:45:04;4.37;;;2.17;;
26040;SDS011;13816;53.628;9.950;2023-05-31T12:47:32;5.30;;;2.30;;
26040;SDS011;13816;53.628;9.950;2023-05-31T12:52:36;8.90;;;1.97;;
26040;SDS011;13816;53.628;9.950;2023-05-31T12:55:06;3.80;;;1.80;;
26040;SDS011;13816;53.628;9.950;2023-05-31T12:57:34;5.07;;;2.10;;
26040;SDS011;13816;53.628;9.950;2023-05-31T13:00:03;5.57;;;1.90;;
26040;SDS011;13816;53.628;9.950;2023-05-31T13:02:34;4.23;;;1.70;;
26040;SDS011;13816;53.628;9.950;2023-05-31T13:05:03;6.73;;;2.00;;
26040;SDS011;13816;53.628;9.950;2023-05-31T13:07:32;6.10;;;2.00;;
26040;SDS011;13816;53.628;9.950;2023-05-31T13:09:59;7.30;;;2.60;;
26040;SDS011;13816;53.628;9.950;2023-05-31T13:12:29;4.67;;;2.07;;
26040;SDS011;13816;53.628;9.950;2023-05-31T13:14:56;5.23;;;2.30;;
26040;SDS011;13816;53.628;9.950;2023-05-31T13:17:25;7.47;;;2.00;;
26040;SDS011;13816;53.628;9.950;2023-05-31T13:20:14;5.90;;;1.97;;
26040;SDS011;13816;53.628;9.950;2023-05-31T13:22:42;10.57;;;2.03;;
26040;SDS011;13816;53.628;9.950;2023-05-31T13:25:10;5.67;;;2.10;;
26040;SDS011;13816;53.628;9.950;2023-05-31T13:27:38;5.63;;;1.97;;
26040;SDS011;13816;53.628;9.950;2023-05-31T13:30:07;9.10;;;1.77;;
26040;SDS011;13816;53.628;9.950;2023-05-31T13:32:34;7.90;;;2.17;;
26040;SDS011;13816;53.628;9.950;2023-05-31T13:35:02;8.40;;;2.33;;
26040;SDS011;13816;53.628;9.950;2023-05-31T13:37:30;6.40;;;1.70;;
26040;SDS011;13816;53.628;9.950;2023-05-31T13:39:59;2.50;;;1.47;;
26040;SDS011;13816;53.628;9.950;2023-05-31T13:42:26;4.80;;;1.47;;
26040;SDS011;13816;53.628;9.950;2023-05-31T13:44:54;6.73;;;2.50;;
26040;SDS011;13816;53.628;9.950;2023-05-31T13:47:21;11.53;;;1.90;;
26040;SDS011;13816;53.628;9.950;2023-05-31T13:49:49;5.73;;;1.83;;
26040;SDS011;13816;53.628;9.950;2023-05-31T13:52:20;6.03;;;1.70;;
26040;SDS011;13816;53.628;9.950;2023-05-31T13:54:47;8.33;;;2.03;;
26040;SDS011;13816;53.628;9.950;2023-05-31T13:57:14;4.73;;;1.80;;
26040;SDS011;13816;53.628;9.950;2023-05-31T13:59:42;6.47;;;2.03;;
26040;SDS011;13816;53.628;9.950;2023-05-31T14:02:09;5.23;;;2.07;;
26040;SDS011;13816;53.628;9.950;2023-05-31T14:04:37;2.00;;;1.70;;
26040;SDS011;13816;53.628;9.950;2023-05-31T14:07:04;13.40;;;2.20;;
26040;SDS011;13816;53.628;9.950;2023-05-31T14:09:32;5.20;;;1.80;;
26040;SDS011;13816;53.628;9.950;2023-05-31T14:12:00;7.43;;;1.80;;
26040;SDS011;13816;53.628;9.950;2023-05-31T14:14:27;6.70;;;2.17;;
26040;SDS011;13816;53.628;9.950;2023-05-31T14:16:55;3.93;;;2.13;;
26040;SDS011;13816;53.628;9.950;2023-05-31T14:19:22;16.23;;;2.40;;
26040;SDS011;13816;53.628;9.950;2023-05-31T14:21:50;13.03;;;2.20;;
26040;SDS011;13816;53.628;9.950;2023-05-31T14:24:17;4.40;;;2.17;;
26040;SDS011;13816;53.628;9.950;2023-05-31T14:26:44;11.77;;;2.57;;
26040;SDS011;13816;53.628;9.950;2023-05-31T14:29:12;5.50;;;2.13;;
26040;SDS011;13816;53.628;9.950;2023-05-31T14:31:39;8.43;;;3.20;;
26040;SDS011;13816;53.628;9.950;2023-05-31T14:34:07;14.27;;;2.53;;
26040;SDS011;13816;53.628;9.950;2023-05-31T14:36:34;7.60;;;2.70;;
26040;SDS011;13816;53.628;9.950;2023-05-31T14:39:03;6.00;;;2.97;;
26040;SDS011;13816;53.628;9.950;2023-05-31T14:41:31;6.20;;;2.60;;
26040;SDS011;13816;53.628;9.950;2023-05-31T14:43:58;11.97;;;2.73;;
26040;SDS011;13816;53.628;9.950;2023-05-31T14:46:25;8.70;;;2.60;;
26040;SDS011;13816;53.628;9.950;2023-05-31T14:48:53;10.03;;;3.30;;
26040;SDS011;13816;53.628;9.950;2023-05-31T14:51:22;12.87;;;2.70;;
26040;SDS011;13816;53.628;9.950;2023-05-31T14:53:49;3.87;;;2.20;;
26040;SDS011;13816;53.628;9.950;2023-05-31T14:56:20;7.17;;;2.80;;
26040;SDS011;13816;53.628;9.950;2023-05-31T14:58:48;6.00;;;2.60;;
26040;SDS011;13816;53.628;9.950;2023-05-31T15:01:18;6.00;;;2.57;;
26040;SDS011;13816;53.628;9.950;2023-05-31T15:03:47;8.47;;;2.77;;
26040;SDS011;13816;53.628;9.950;2023-05-31T15:06:17;8.73;;;3.40;;
26040;SDS011;13816;53.628;9.950;2023-05-31T15:08:45;4.67;;;2.70;;
26040;SDS011;13816;53.628;9.950;2023-05-31T15:11:12;12.47;;;2.93;;
26040;SDS011;13816;53.628;9.950;2023-05-31T15:13:40;7.10;;;2.77;;
26040;SDS011;13816;53.628;9.950;2023-05-31T15:16:08;10.53;;;3.50;;
26040;SDS011;13816;53.628;9.950;2023-05-31T15:18:35;7.70;;;2.40;;
26040;SDS011;13816;53.628;9.950;2023-05-31T15:21:03;8.70;;;2.80;;
26040;SDS011;13816;53.628;9.950;2023-05-31T15:23:33;10.53;;;2.97;;
26040;SDS011;13816;53.628;9.950;2023-05-31T15:26:01;3.80;;;2.50;;
26040;SDS011;13816;53.628;9.950;2023-05-31T15:28:28;11.97;;;3.13;;